sensor_id;sensor_type;location;lat;lon;timestamp;P1;durP1;ratioP1;P2;durP2;ratioP2
1719;SDS011;857;52.872;9.692;2023-08-20T00:02:24;9.00;;;8.10;;
1719;SDS011;857;52.872;9.692;2023-08-20T00:04:52;6.80;;;6.17;;
1719;SDS011;857;52.872;9.692;2023-08-20T00:07:23;12.80;;;10.37;;
1719;SDS011;857;52.872;9.692;2023-08-20T00:09:50;7.10;;;6.40;;
1719;SDS011;857;52.872;9.692;2023-08-20T00:12:18;8.40;;;6.93;;
1719;SDS011;857;52.872;9.692;2023-08-20T00:14:53;6.07;;;5.47;;
1719;SDS011;857;52.872;9.692;2023-08-20T00:17:22;7.60;;;6.80;;
1719;SDS011;857;52.872;9.692;2023-08-20T00:19:52;6.30;;;5.70;;
1719;SDS011;857;52.872;9.692;2023-08-20T00:22:23;11.20;;;7.97;;
1719;SDS011;857;52.872;9.692;2023-08-20T00:24:51;12.43;;;9.27;;
1719;SDS011;857;52.872;9.692;2023-08-20T00:27:19;9.30;;;8.40;;
1719;SDS011;857;52.872;9.692;2023-08-20T00:29:47;6.47;;;5.87;;
1719;SDS011;857;52.872;9.692;2023-08-20T00:32:15;11.63;;;9.20;;
1719;SDS011;857;52.872;9.692;2023-08-20T00:34:43;10.87;;;8.83;;
1719;SDS011;857;52.872;9.692;2023-08-20T00:37:11;13.30;;;9.80;;
1719;SDS011;857;52.872;9.692;2023-08-20T00:39:40;8.37;;;6.80;;
1719;SDS011;857;52.872;9.692;2023-08-20T00:42:08;10.63;;;8.30;;
1719;SDS011;857;52.872;9.692;2023-08-20T00:44:36;6.70;;;5.87;;
1719;SDS011;857;52.872;9.692;2023-08-20T00:47:05;8.33;;;7.20;;
1719;SDS011;857;52.872;9.692;2023-08-20T00:49:33;10.10;;;8.17;;
1719;SDS011;857;52.872;9.692;2023-08-20T00:52:01;9.30;;;7.83;;
1719;SDS011;857;52.872;9.692;2023-08-20T00:54:30;9.93;;;8.70;;
1719;SDS011;857;52.872;9.692;2023-08-20T00:57:00;11.13;;;9.20;;
1719;SDS011;857;52.872;9.692;2023-08-20T00:59:30;7.30;;;6.60;;
1719;SDS011;857;52.872;9.692;2023-08-20T01:01:58;5.93;;;5.33;;
1719;SDS011;857;52.872;9.692;2023-08-20T01:04:26;11.53;;;8.53;;
1719;SDS011;857;52.872;9.692;2023-08-20T01:07:00;9.50;;;8.10;;
1719;SDS011;857;52.872;9.692;2023-08-20T01:09:31;10.83;;;8.37;;
1719;SDS011;857;52.872;9.692;2023-08-20T01:12:06;11.00;;;8.17;;
1719;SDS011;857;52.872;9.692;2023-08-20T01:14:33;9.60;;;8.53;;
1719;SDS011;857;52.872;9.692;2023-08-20T01:17:01;10.83;;;8.23;;
1719;SDS011;857;52.872;9.692;2023-08-20T01:19:29;9.17;;;8.23;;
1719;SDS011;857;52.872;9.692;2023-08-20T01:22:05;7.87;;;6.70;;
1719;SDS011;857;52.872;9.692;2023-08-20T01:24:44;8.17;;;7.37;;
1719;SDS011;857;52.872;9.692;2023-08-20T01:27:24;10.53;;;8.20;;
1719;SDS011;857;52.872;9.692;2023-08-20T01:29:55;8.17;;;7.27;;
1719;SDS011;857;52.872;9.692;2023-08-20T01:32:24;11.13;;;8.47;;
1719;SDS011;857;52.872;9.692;2023-08-20T01:34:52;11.33;;;7.40;;
1719;SDS011;857;52.872;9.692;2023-08-20T01:37:20;7.37;;;6.60;;
1719;SDS011;857;52.872;9.692;2023-08-20T01:39:48;7.97;;;7.17;;
1719;SDS011;857;52.872;9.692;2023-08-20T01:42:16;7.20;;;6.50;;
1719;SDS011;857;52.872;9.692;2023-08-20T01:44:45;11.60;;;7.40;;
1719;SDS011;857;52.872;9.692;2023-08-20T01:47:14;7.07;;;6.37;;
1719;SDS011;857;52.872;9.692;2023-08-20T01:49:42;8.27;;;6.93;;
1719;SDS011;857;52.872;9.692;2023-08-20T01:52:10;7.73;;;6.90;;
1719;SDS011;857;52.872;9.692;2023-08-20T01:54:37;8.57;;;7.67;;
1719;SDS011;857;52.872;9.692;2023-08-20T01:57:05;7.43;;;6.60;;
1719;SDS011;857;52.872;9.692;2023-08-20T01:59:33;7.80;;;7.00;;
1719;SDS011;857;52.872;9.692;2023-08-20T02:02:00;7.10;;;6.20;;
1719;SDS011;857;52.872;9.692;2023-08-20T02:04:31;6.93;;;6.20;;
1719;SDS011;857;52.872;9.692;2023-08-20T02:06:59;7.20;;;6.50;;
1719;SDS011;857;52.872;9.692;2023-08-20T02:09:27;6.73;;;6.03;;
1719;SDS011;857;52.872;9.692;2023-08-20T02:11:54;8.13;;;7.13;;
1719;SDS011;857;52.872;9.692;2023-08-20T02:14:22;8.30;;;7.10;;
1719;SDS011;857;52.872;9.692;2023-08-20T02:16:52;8.23;;;6.20;;
1719;SDS011;857;52.872;9.692;2023-08-20T02:19:20;6.90;;;5.90;;
1719;SDS011;857;52.872;9.692;2023-08-20T02:21:49;5.70;;;5.07;;
1719;SDS011;857;52.872;9.692;2023-08-20T02:24:16;5.47;;;4.97;;
1719;SDS011;857;52.872;9.692;2023-08-20T02:26:44;7.57;;;6.47;;
1719;SDS011;857;52.872;9.692;2023-08-20T02:29:13;6.30;;;5.70;;
1719;SDS011;857;52.872;9.692;2023-08-20T02:31:40;7.17;;;5.93;;
1719;SDS011;857;52.872;9.692;2023-08-20T02:34:08;8.43;;;6.57;;
1719;SDS011;857;52.872;9.692;2023-08-20T02:36:36;8.27;;;5.87;;
1719;SDS011;857;52.872;9.692;2023-08-20T02:39:05;6.33;;;5.73;;
1719;SDS011;857;52.872;9.692;2023-08-20T02:41:34;7.83;;;6.00;;
1719;SDS011;857;52.872;9.692;2023-08-20T02:44:02;8.50;;;6.50;;
1719;SDS011;857;52.872;9.692;2023-08-20T02:46:30;7.97;;;6.10;;
1719;SDS011;857;52.872;9.692;2023-08-20T02:48:58;7.50;;;6.30;;
1719;SDS011;857;52.872;9.692;2023-08-20T02:51:27;6.60;;;6.00;;
1719;SDS011;857;52.872;9.692;2023-08-20T02:53:54;7.00;;;6.30;;
1719;SDS011;857;52.872;9.692;2023-08-20T02:56:23;8.63;;;6.60;;
1719;SDS011;857;52.872;9.692;2023-08-20T02:58:51;7.13;;;6.40;;
1719;SDS011;857;52.872;9.692;2023-08-20T03:01:19;8.87;;;7.13;;
1719;SDS011;857;52.872;9.692;2023-08-20T03:03:47;9.13;;;7.20;;
1719;SDS011;857;52.872;9.692;2023-08-20T03:06:15;7.40;;;5.83;;
1719;SDS011;857;52.872;9.692;2023-08-20T03:08:43;7.23;;;5.70;;
1719;SDS011;857;52.872;9.692;2023-08-20T03:11:10;7.17;;;6.30;;
1719;SDS011;857;52.872;9.692;2023-08-20T03:13:39;7.03;;;6.10;;
1719;SDS011;857;52.872;9.692;2023-08-20T03:16:07;7.50;;;6.70;;
1719;SDS011;857;52.872;9.692;2023-08-20T03:18:35;6.97;;;6.30;;
1719;SDS011;857;52.872;9.692;2023-08-20T03:21:02;6.43;;;5.63;;
1719;SDS011;857;52.872;9.692;2023-08-20T03:23:30;9.67;;;7.37;;
1719;SDS011;857;52.872;9.692;2023-08-20T03:25:58;11.10;;;6.57;;
1719;SDS011;857;52.872;9.692;2023-08-20T03:28:26;13.63;;;7.40;;
1719;SDS011;857;52.872;9.692;2023-08-20T03:30:55;10.93;;;7.67;;
1719;SDS011;857;52.872;9.692;2023-08-20T03:33:26;8.97;;;6.00;;
1719;SDS011;857;52.872;9.692;2023-08-20T03:35:54;8.60;;;6.87;;
1719;SDS011;857;52.872;9.692;2023-08-20T03:38:22;15.20;;;9.80;;
1719;SDS011;857;52.872;9.692;2023-08-20T03:40:50;12.70;;;10.27;;
1719;SDS011;857;52.872;9.692;2023-08-20T03:43:18;15.60;;;9.70;;
1719;SDS011;857;52.872;9.692;2023-08-20T03:45:49;5.00;;;4.60;;
1719;SDS011;857;52.872;9.692;2023-08-20T03:48:18;14.90;;;11.23;;
1719;SDS011;857;52.872;9.692;2023-08-20T03:50:46;12.73;;;10.00;;
1719;SDS011;857;52.872;9.692;2023-08-20T03:53:15;13.70;;;11.10;;
1719;SDS011;857;52.872;9.692;2023-08-20T03:55:47;11.53;;;10.30;;
1719;SDS011;857;52.872;9.692;2023-08-20T03:58:15;14.73;;;11.57;;
1719;SDS011;857;52.872;9.692;2023-08-20T04:00:43;13.50;;;10.60;;
1719;SDS011;857;52.872;9.692;2023-08-20T04:03:11;15.77;;;11.37;;
1719;SDS011;857;52.872;9.692;2023-08-20T04:05:41;13.57;;;11.37;;
1719;SDS011;857;52.872;9.692;2023-08-20T04:08:08;12.40;;;10.73;;
1719;SDS011;857;52.872;9.692;2023-08-20T04:10:41;12.93;;;10.83;;
1719;SDS011;857;52.872;9.692;2023-08-20T04:13:09;14.40;;;11.70;;
1719;SDS011;857;52.872;9.692;2023-08-20T04:15:37;13.27;;;10.90;;
1719;SDS011;857;52.872;9.692;2023-08-20T04:18:05;14.33;;;12.47;;
1719;SDS011;857;52.872;9.692;2023-08-20T04:20:33;17.90;;;12.10;;
1719;SDS011;857;52.872;9.692;2023-08-20T04:23:03;16.67;;;12.37;;
1719;SDS011;857;52.872;9.692;2023-08-20T04:25:31;14.60;;;12.40;;
1719;SDS011;857;52.872;9.692;2023-08-20T04:27:59;16.43;;;12.00;;
1719;SDS011;857;52.872;9.692;2023-08-20T04:30:27;14.17;;;11.30;;
1719;SDS011;857;52.872;9.692;2023-08-20T04:32:55;14.53;;;12.00;;
1719;SDS011;857;52.872;9.692;2023-08-20T04:37:57;12.80;;;10.97;;
1719;SDS011;857;52.872;9.692;2023-08-20T04:40:28;12.13;;;10.93;;
1719;SDS011;857;52.872;9.692;2023-08-20T04:42:56;11.33;;;10.13;;
1719;SDS011;857;52.872;9.692;2023-08-20T04:45:24;14.17;;;12.07;;
1719;SDS011;857;52.872;9.692;2023-08-20T04:47:52;12.37;;;10.70;;
1719;SDS011;857;52.872;9.692;2023-08-20T04:50:20;12.93;;;10.80;;
1719;SDS011;857;52.872;9.692;2023-08-20T04:52:47;13.70;;;10.93;;
1719;SDS011;857;52.872;9.692;2023-08-20T04:55:16;14.60;;;11.20;;
1719;SDS011;857;52.872;9.692;2023-08-20T04:57:45;14.70;;;11.37;;
1719;SDS011;857;52.872;9.692;2023-08-20T05:00:13;12.93;;;11.53;;
1719;SDS011;857;52.872;9.692;2023-08-20T05:02:48;12.70;;;10.63;;
1719;SDS011;857;52.872;9.692;2023-08-20T05:05:18;14.13;;;11.63;;
1719;SDS011;857;52.872;9.692;2023-08-20T05:07:46;11.30;;;10.10;;
1719;SDS011;857;52.872;9.692;2023-08-20T05:10:13;11.87;;;10.67;;
1719;SDS011;857;52.872;9.692;2023-08-20T05:12:41;12.60;;;10.23;;
1719;SDS011;857;52.872;9.692;2023-08-20T05:15:11;11.23;;;9.90;;
1719;SDS011;857;52.872;9.692;2023-08-20T05:17:38;11.40;;;10.20;;
1719;SDS011;857;52.872;9.692;2023-08-20T05:20:06;12.17;;;10.60;;
1719;SDS011;857;52.872;9.692;2023-08-20T05:22:36;12.87;;;10.40;;
1719;SDS011;857;52.872;9.692;2023-08-20T05:25:03;11.30;;;9.90;;
1719;SDS011;857;52.872;9.692;2023-08-20T05:27:32;12.10;;;10.90;;
1719;SDS011;857;52.872;9.692;2023-08-20T05:29:59;10.83;;;9.73;;
1719;SDS011;857;52.872;9.692;2023-08-20T05:32:28;5.40;;;4.90;;
1719;SDS011;857;52.872;9.692;2023-08-20T05:34:57;9.90;;;8.87;;
1719;SDS011;857;52.872;9.692;2023-08-20T05:37:24;8.57;;;7.77;;
1719;SDS011;857;52.872;9.692;2023-08-20T05:39:52;9.20;;;8.17;;
1719;SDS011;857;52.872;9.692;2023-08-20T05:42:20;10.53;;;9.53;;
1719;SDS011;857;52.872;9.692;2023-08-20T05:44:55;7.93;;;7.13;;
1719;SDS011;857;52.872;9.692;2023-08-20T05:47:26;7.07;;;6.27;;
1719;SDS011;857;52.872;9.692;2023-08-20T05:49:55;8.83;;;8.03;;
1719;SDS011;857;52.872;9.692;2023-08-20T05:52:23;7.67;;;6.97;;
1719;SDS011;857;52.872;9.692;2023-08-20T05:54:51;9.73;;;8.73;;
1719;SDS011;857;52.872;9.692;2023-08-20T05:57:20;7.50;;;6.80;;
1719;SDS011;857;52.872;9.692;2023-08-20T05:59:48;8.23;;;7.53;;
1719;SDS011;857;52.872;9.692;2023-08-20T06:02:16;10.10;;;9.10;;
1719;SDS011;857;52.872;9.692;2023-08-20T06:04:44;9.50;;;8.50;;
1719;SDS011;857;52.872;9.692;2023-08-20T06:07:13;9.00;;;8.10;;
1719;SDS011;857;52.872;9.692;2023-08-20T06:09:41;8.17;;;7.27;;
1719;SDS011;857;52.872;9.692;2023-08-20T06:12:09;9.07;;;8.20;;
1719;SDS011;857;52.872;9.692;2023-08-20T06:14:36;8.60;;;7.70;;
1719;SDS011;857;52.872;9.692;2023-08-20T06:17:04;9.30;;;8.40;;
1719;SDS011;857;52.872;9.692;2023-08-20T06:19:31;5.60;;;5.10;;
1719;SDS011;857;52.872;9.692;2023-08-20T06:24:35;8.60;;;7.80;;
1719;SDS011;857;52.872;9.692;2023-08-20T06:27:03;7.13;;;6.40;;
1719;SDS011;857;52.872;9.692;2023-08-20T06:29:31;7.13;;;6.40;;
1719;SDS011;857;52.872;9.692;2023-08-20T06:31:58;11.37;;;9.40;;
1719;SDS011;857;52.872;9.692;2023-08-20T06:34:26;12.07;;;9.27;;
1719;SDS011;857;52.872;9.692;2023-08-20T06:36:54;7.73;;;7.00;;
1719;SDS011;857;52.872;9.692;2023-08-20T06:39:22;10.40;;;9.30;;
1719;SDS011;857;52.872;9.692;2023-08-20T06:41:51;12.60;;;11.30;;
1719;SDS011;857;52.872;9.692;2023-08-20T06:44:20;6.80;;;6.20;;
1719;SDS011;857;52.872;9.692;2023-08-20T06:46:47;12.50;;;10.20;;
1719;SDS011;857;52.872;9.692;2023-08-20T06:49:15;8.73;;;7.60;;
1719;SDS011;857;52.872;9.692;2023-08-20T06:51:43;5.80;;;5.20;;
1719;SDS011;857;52.872;9.692;2023-08-20T06:54:10;14.33;;;12.80;;
1719;SDS011;857;52.872;9.692;2023-08-20T06:56:38;10.67;;;9.20;;
1719;SDS011;857;52.872;9.692;2023-08-20T06:59:07;14.00;;;12.17;;
1719;SDS011;857;52.872;9.692;2023-08-20T07:01:35;15.30;;;12.63;;
1719;SDS011;857;52.872;9.692;2023-08-20T07:04:03;5.63;;;5.07;;
1719;SDS011;857;52.872;9.692;2023-08-20T07:06:31;6.53;;;5.83;;
1719;SDS011;857;52.872;9.692;2023-08-20T07:08:59;8.33;;;7.47;;
1719;SDS011;857;52.872;9.692;2023-08-20T07:11:29;8.40;;;7.50;;
1719;SDS011;857;52.872;9.692;2023-08-20T07:13:56;16.73;;;11.67;;
1719;SDS011;857;52.872;9.692;2023-08-20T07:16:25;11.27;;;9.83;;
1719;SDS011;857;52.872;9.692;2023-08-20T07:18:53;5.67;;;5.13;;
1719;SDS011;857;52.872;9.692;2023-08-20T07:21:21;10.70;;;8.03;;
1719;SDS011;857;52.872;9.692;2023-08-20T07:23:48;7.93;;;7.10;;
1719;SDS011;857;52.872;9.692;2023-08-20T07:26:16;9.40;;;6.67;;
1719;SDS011;857;52.872;9.692;2023-08-20T07:28:44;15.00;;;9.63;;
1719;SDS011;857;52.872;9.692;2023-08-20T07:31:26;12.67;;;10.50;;
1719;SDS011;857;52.872;9.692;2023-08-20T07:33:55;10.90;;;8.87;;
1719;SDS011;857;52.872;9.692;2023-08-20T07:36:22;12.80;;;8.70;;
1719;SDS011;857;52.872;9.692;2023-08-20T07:38:50;11.20;;;8.97;;
1719;SDS011;857;52.872;9.692;2023-08-20T07:41:18;10.23;;;9.07;;
1719;SDS011;857;52.872;9.692;2023-08-20T07:43:46;9.60;;;8.33;;
1719;SDS011;857;52.872;9.692;2023-08-20T07:46:14;9.73;;;8.00;;
1719;SDS011;857;52.872;9.692;2023-08-20T07:48:43;6.23;;;5.20;;
1719;SDS011;857;52.872;9.692;2023-08-20T07:51:11;7.53;;;5.23;;
1719;SDS011;857;52.872;9.692;2023-08-20T07:53:39;5.10;;;4.60;;
1719;SDS011;857;52.872;9.692;2023-08-20T07:56:07;7.27;;;5.40;;
1719;SDS011;857;52.872;9.692;2023-08-20T07:58:35;7.50;;;4.20;;
1719;SDS011;857;52.872;9.692;2023-08-20T08:01:03;5.00;;;3.80;;
1719;SDS011;857;52.872;9.692;2023-08-20T08:03:31;4.03;;;3.65;;
1719;SDS011;857;52.872;9.692;2023-08-20T08:06:00;5.90;;;3.50;;
1719;SDS011;857;52.872;9.692;2023-08-20T08:08:28;3.90;;;3.50;;
1719;SDS011;857;52.872;9.692;2023-08-20T08:10:55;4.50;;;4.10;;
1719;SDS011;857;52.872;9.692;2023-08-20T08:13:23;4.47;;;3.80;;
1719;SDS011;857;52.872;9.692;2023-08-20T08:15:51;6.20;;;3.83;;
1719;SDS011;857;52.872;9.692;2023-08-20T08:18:18;4.23;;;3.90;;
1719;SDS011;857;52.872;9.692;2023-08-20T08:20:46;4.43;;;4.03;;
1719;SDS011;857;52.872;9.692;2023-08-20T08:23:15;3.53;;;3.23;;
1719;SDS011;857;52.872;9.692;2023-08-20T08:25:43;4.35;;;3.95;;
1719;SDS011;857;52.872;9.692;2023-08-20T08:28:11;7.40;;;3.63;;
1719;SDS011;857;52.872;9.692;2023-08-20T08:30:38;5.10;;;3.30;;
1719;SDS011;857;52.872;9.692;2023-08-20T08:33:06;4.17;;;3.50;;
1719;SDS011;857;52.872;9.692;2023-08-20T08:35:34;3.77;;;3.47;;
1719;SDS011;857;52.872;9.692;2023-08-20T08:38:01;5.37;;;3.60;;
1719;SDS011;857;52.872;9.692;2023-08-20T08:40:31;5.57;;;4.57;;
1719;SDS011;857;52.872;9.692;2023-08-20T08:43:00;4.40;;;3.60;;
1719;SDS011;857;52.872;9.692;2023-08-20T08:45:29;5.43;;;3.87;;
1719;SDS011;857;52.872;9.692;2023-08-20T08:47:57;5.20;;;4.20;;
1719;SDS011;857;52.872;9.692;2023-08-20T08:50:24;7.57;;;4.20;;
1719;SDS011;857;52.872;9.692;2023-08-20T08:52:52;4.93;;;4.00;;
1719;SDS011;857;52.872;9.692;2023-08-20T08:55:21;7.30;;;4.80;;
1719;SDS011;857;52.872;9.692;2023-08-20T08:57:50;6.20;;;4.17;;
1719;SDS011;857;52.872;9.692;2023-08-20T09:00:18;7.43;;;4.37;;
1719;SDS011;857;52.872;9.692;2023-08-20T09:02:46;5.13;;;3.80;;
1719;SDS011;857;52.872;9.692;2023-08-20T09:05:14;4.33;;;3.90;;
1719;SDS011;857;52.872;9.692;2023-08-20T09:07:42;4.27;;;3.80;;
1719;SDS011;857;52.872;9.692;2023-08-20T09:10:10;5.80;;;3.87;;
1719;SDS011;857;52.872;9.692;2023-08-20T09:12:38;5.07;;;4.57;;
1719;SDS011;857;52.872;9.692;2023-08-20T09:15:11;9.03;;;3.83;;
1719;SDS011;857;52.872;9.692;2023-08-20T09:17:40;5.73;;;4.50;;
1719;SDS011;857;52.872;9.692;2023-08-20T09:20:08;5.10;;;4.27;;
1719;SDS011;857;52.872;9.692;2023-08-20T09:22:36;4.40;;;4.00;;
1719;SDS011;857;52.872;9.692;2023-08-20T09:25:04;4.30;;;3.87;;
1719;SDS011;857;52.872;9.692;2023-08-20T09:27:38;5.13;;;4.23;;
1719;SDS011;857;52.872;9.692;2023-08-20T09:30:07;4.33;;;3.90;;
1719;SDS011;857;52.872;9.692;2023-08-20T09:32:37;16.00;;;6.20;;
1719;SDS011;857;52.872;9.692;2023-08-20T09:35:05;7.77;;;4.30;;
1719;SDS011;857;52.872;9.692;2023-08-20T09:37:33;5.47;;;4.80;;
1719;SDS011;857;52.872;9.692;2023-08-20T09:40:01;22.30;;;7.03;;
1719;SDS011;857;52.872;9.692;2023-08-20T09:42:29;57.13;;;14.53;;
1719;SDS011;857;52.872;9.692;2023-08-20T09:44:59;44.23;;;12.43;;
1719;SDS011;857;52.872;9.692;2023-08-20T09:47:30;35.97;;;12.10;;
1719;SDS011;857;52.872;9.692;2023-08-20T09:50:01;22.67;;;8.93;;
1719;SDS011;857;52.872;9.692;2023-08-20T09:52:31;22.77;;;8.90;;
1719;SDS011;857;52.872;9.692;2023-08-20T09:55:03;25.67;;;8.90;;
1719;SDS011;857;52.872;9.692;2023-08-20T09:57:35;24.80;;;8.70;;
1719;SDS011;857;52.872;9.692;2023-08-20T10:00:03;20.10;;;8.10;;
1719;SDS011;857;52.872;9.692;2023-08-20T10:02:41;26.83;;;8.40;;
1719;SDS011;857;52.872;9.692;2023-08-20T10:05:10;20.97;;;8.50;;
1719;SDS011;857;52.872;9.692;2023-08-20T10:07:38;6.47;;;5.40;;
1719;SDS011;857;52.872;9.692;2023-08-20T10:10:06;11.57;;;6.20;;
1719;SDS011;857;52.872;9.692;2023-08-20T10:12:35;13.40;;;6.20;;
1719;SDS011;857;52.872;9.692;2023-08-20T10:15:05;23.20;;;7.50;;
1719;SDS011;857;52.872;9.692;2023-08-20T10:17:34;15.53;;;7.10;;
1719;SDS011;857;52.872;9.692;2023-08-20T10:20:03;18.37;;;6.83;;
1719;SDS011;857;52.872;9.692;2023-08-20T10:22:36;19.23;;;7.53;;
1719;SDS011;857;52.872;9.692;2023-08-20T10:25:05;10.70;;;5.77;;
1719;SDS011;857;52.872;9.692;2023-08-20T10:27:34;11.73;;;6.73;;
1719;SDS011;857;52.872;9.692;2023-08-20T10:30:03;10.97;;;6.17;;
1719;SDS011;857;52.872;9.692;2023-08-20T10:32:47;12.13;;;6.20;;
1719;SDS011;857;52.872;9.692;2023-08-20T10:35:15;13.40;;;6.63;;
1719;SDS011;857;52.872;9.692;2023-08-20T10:40:49;5.33;;;4.60;;
1719;SDS011;857;52.872;9.692;2023-08-20T10:43:26;7.80;;;4.77;;
1719;SDS011;857;52.872;9.692;2023-08-20T10:46:07;6.33;;;4.20;;
1719;SDS011;857;52.872;9.692;2023-08-20T10:48:36;7.10;;;4.50;;
1719;SDS011;857;52.872;9.692;2023-08-20T10:51:08;5.33;;;4.40;;
1719;SDS011;857;52.872;9.692;2023-08-20T10:53:38;4.33;;;3.90;;
1719;SDS011;857;52.872;9.692;2023-08-20T10:56:13;11.53;;;5.30;;
1719;SDS011;857;52.872;9.692;2023-08-20T10:58:42;6.47;;;4.60;;
1719;SDS011;857;52.872;9.692;2023-08-20T11:01:17;5.60;;;4.40;;
1719;SDS011;857;52.872;9.692;2023-08-20T11:03:46;9.77;;;5.80;;
1719;SDS011;857;52.872;9.692;2023-08-20T11:06:14;13.27;;;5.60;;
1719;SDS011;857;52.872;9.692;2023-08-20T11:08:42;10.40;;;5.67;;
1719;SDS011;857;52.872;9.692;2023-08-20T11:11:10;10.40;;;4.90;;
1719;SDS011;857;52.872;9.692;2023-08-20T11:13:40;11.43;;;6.20;;
1719;SDS011;857;52.872;9.692;2023-08-20T11:16:08;10.70;;;5.43;;
1719;SDS011;857;52.872;9.692;2023-08-20T11:18:36;6.97;;;4.30;;
1719;SDS011;857;52.872;9.692;2023-08-20T11:21:04;7.73;;;5.03;;
1719;SDS011;857;52.872;9.692;2023-08-20T11:23:31;9.47;;;5.60;;
1719;SDS011;857;52.872;9.692;2023-08-20T11:25:59;4.33;;;3.93;;
1719;SDS011;857;52.872;9.692;2023-08-20T11:28:27;9.27;;;5.77;;
1719;SDS011;857;52.872;9.692;2023-08-20T11:30:57;11.40;;;5.07;;
1719;SDS011;857;52.872;9.692;2023-08-20T11:33:25;8.53;;;4.90;;
1719;SDS011;857;52.872;9.692;2023-08-20T11:35:53;4.97;;;4.30;;
1719;SDS011;857;52.872;9.692;2023-08-20T11:38:22;6.03;;;4.53;;
1719;SDS011;857;52.872;9.692;2023-08-20T11:40:50;5.20;;;4.63;;
1719;SDS011;857;52.872;9.692;2023-08-20T11:43:18;7.03;;;4.53;;
1719;SDS011;857;52.872;9.692;2023-08-20T11:45:46;6.20;;;5.10;;
1719;SDS011;857;52.872;9.692;2023-08-20T11:48:16;6.53;;;4.93;;
1719;SDS011;857;52.872;9.692;2023-08-20T11:50:44;7.23;;;5.50;;
1719;SDS011;857;52.872;9.692;2023-08-20T11:53:12;6.80;;;5.10;;
1719;SDS011;857;52.872;9.692;2023-08-20T11:55:40;6.30;;;4.33;;
1719;SDS011;857;52.872;9.692;2023-08-20T11:58:14;6.70;;;4.57;;
1719;SDS011;857;52.872;9.692;2023-08-20T12:00:42;4.53;;;4.10;;
1719;SDS011;857;52.872;9.692;2023-08-20T12:03:09;7.63;;;4.63;;
1719;SDS011;857;52.872;9.692;2023-08-20T12:05:42;8.03;;;4.83;;
1719;SDS011;857;52.872;9.692;2023-08-20T12:08:14;10.30;;;4.80;;
1719;SDS011;857;52.872;9.692;2023-08-20T12:10:42;6.53;;;4.87;;
1719;SDS011;857;52.872;9.692;2023-08-20T12:13:10;5.37;;;4.73;;
1719;SDS011;857;52.872;9.692;2023-08-20T12:15:38;7.43;;;4.80;;
1719;SDS011;857;52.872;9.692;2023-08-20T12:18:06;9.17;;;5.30;;
1719;SDS011;857;52.872;9.692;2023-08-20T12:20:34;7.33;;;4.80;;
1719;SDS011;857;52.872;9.692;2023-08-20T12:23:05;7.17;;;5.17;;
1719;SDS011;857;52.872;9.692;2023-08-20T12:25:34;5.40;;;4.83;;
1719;SDS011;857;52.872;9.692;2023-08-20T12:28:02;7.63;;;4.90;;
1719;SDS011;857;52.872;9.692;2023-08-20T12:30:31;5.03;;;4.63;;
1719;SDS011;857;52.872;9.692;2023-08-20T12:32:59;7.00;;;4.60;;
1719;SDS011;857;52.872;9.692;2023-08-20T12:35:28;9.77;;;5.03;;
1719;SDS011;857;52.872;9.692;2023-08-20T12:37:55;6.00;;;5.40;;
1719;SDS011;857;52.872;9.692;2023-08-20T12:40:24;7.53;;;4.87;;
1719;SDS011;857;52.872;9.692;2023-08-20T12:42:52;5.67;;;5.17;;
1719;SDS011;857;52.872;9.692;2023-08-20T12:45:20;5.57;;;5.07;;
1719;SDS011;857;52.872;9.692;2023-08-20T12:47:48;5.40;;;4.90;;
1719;SDS011;857;52.872;9.692;2023-08-20T12:50:15;5.63;;;4.70;;
1719;SDS011;857;52.872;9.692;2023-08-20T12:52:43;8.33;;;4.63;;
1719;SDS011;857;52.872;9.692;2023-08-20T12:55:12;6.43;;;5.07;;
1719;SDS011;857;52.872;9.692;2023-08-20T12:57:52;5.80;;;5.20;;
1719;SDS011;857;52.872;9.692;2023-08-20T13:00:20;6.30;;;5.27;;
1719;SDS011;857;52.872;9.692;2023-08-20T13:02:48;5.67;;;4.60;;
1719;SDS011;857;52.872;9.692;2023-08-20T13:05:16;8.60;;;5.23;;
1719;SDS011;857;52.872;9.692;2023-08-20T13:07:44;7.37;;;5.13;;
1719;SDS011;857;52.872;9.692;2023-08-20T13:10:13;5.77;;;5.27;;
1719;SDS011;857;52.872;9.692;2023-08-20T13:12:41;5.80;;;5.10;;
1719;SDS011;857;52.872;9.692;2023-08-20T13:15:10;6.37;;;5.07;;
1719;SDS011;857;52.872;9.692;2023-08-20T13:17:38;5.50;;;5.10;;
1719;SDS011;857;52.872;9.692;2023-08-20T13:20:06;5.57;;;5.07;;
1719;SDS011;857;52.872;9.692;2023-08-20T13:22:35;8.27;;;4.70;;
1719;SDS011;857;52.872;9.692;2023-08-20T13:25:02;7.33;;;4.83;;
1719;SDS011;857;52.872;9.692;2023-08-20T13:27:30;4.93;;;4.43;;
1719;SDS011;857;52.872;9.692;2023-08-20T13:29:58;5.20;;;4.53;;
1719;SDS011;857;52.872;9.692;2023-08-20T13:32:28;5.50;;;4.27;;
1719;SDS011;857;52.872;9.692;2023-08-20T13:34:55;5.47;;;4.70;;
1719;SDS011;857;52.872;9.692;2023-08-20T13:37:23;5.13;;;4.63;;
1719;SDS011;857;52.872;9.692;2023-08-20T13:39:51;5.67;;;4.97;;
1719;SDS011;857;52.872;9.692;2023-08-20T13:42:18;4.83;;;4.40;;
1719;SDS011;857;52.872;9.692;2023-08-20T13:44:46;5.37;;;4.57;;
1719;SDS011;857;52.872;9.692;2023-08-20T13:47:14;5.30;;;4.33;;
1719;SDS011;857;52.872;9.692;2023-08-20T13:49:43;5.23;;;4.27;;
1719;SDS011;857;52.872;9.692;2023-08-20T13:52:10;5.30;;;4.37;;
1719;SDS011;857;52.872;9.692;2023-08-20T13:54:38;4.73;;;4.13;;
1719;SDS011;857;52.872;9.692;2023-08-20T13:57:06;5.57;;;3.97;;
1719;SDS011;857;52.872;9.692;2023-08-20T13:59:33;4.27;;;3.87;;
1719;SDS011;857;52.872;9.692;2023-08-20T14:02:01;6.67;;;4.90;;
1719;SDS011;857;52.872;9.692;2023-08-20T14:04:29;4.87;;;4.37;;
1719;SDS011;857;52.872;9.692;2023-08-20T14:06:58;5.50;;;4.50;;
1719;SDS011;857;52.872;9.692;2023-08-20T14:09:26;4.40;;;4.00;;
1719;SDS011;857;52.872;9.692;2023-08-20T14:11:53;4.57;;;4.17;;
1719;SDS011;857;52.872;9.692;2023-08-20T14:14:21;4.63;;;4.23;;
1719;SDS011;857;52.872;9.692;2023-08-20T14:16:49;4.70;;;4.30;;
1719;SDS011;857;52.872;9.692;2023-08-20T14:19:16;4.90;;;4.00;;
1719;SDS011;857;52.872;9.692;2023-08-20T14:21:44;5.90;;;4.50;;
1719;SDS011;857;52.872;9.692;2023-08-20T14:24:13;5.40;;;4.50;;
1719;SDS011;857;52.872;9.692;2023-08-20T14:26:41;4.53;;;4.23;;
1719;SDS011;857;52.872;9.692;2023-08-20T14:29:08;4.40;;;4.00;;
1719;SDS011;857;52.872;9.692;2023-08-20T14:31:36;4.80;;;4.40;;
1719;SDS011;857;52.872;9.692;2023-08-20T14:34:04;5.03;;;4.23;;
1719;SDS011;857;52.872;9.692;2023-08-20T14:36:32;4.13;;;3.80;;
1719;SDS011;857;52.872;9.692;2023-08-20T14:38:59;5.63;;;4.63;;
1719;SDS011;857;52.872;9.692;2023-08-20T14:41:30;4.20;;;3.90;;
1719;SDS011;857;52.872;9.692;2023-08-20T14:43:57;4.23;;;3.93;;
1719;SDS011;857;52.872;9.692;2023-08-20T14:46:25;4.00;;;3.70;;
1719;SDS011;857;52.872;9.692;2023-08-20T14:48:53;6.20;;;3.93;;
1719;SDS011;857;52.872;9.692;2023-08-20T14:51:21;4.80;;;4.20;;
1719;SDS011;857;52.872;9.692;2023-08-20T14:53:49;5.13;;;4.70;;
1719;SDS011;857;52.872;9.692;2023-08-20T14:56:16;5.70;;;4.10;;
1719;SDS011;857;52.872;9.692;2023-08-20T14:58:45;4.50;;;4.10;;
1719;SDS011;857;52.872;9.692;2023-08-20T15:01:13;4.47;;;4.17;;
1719;SDS011;857;52.872;9.692;2023-08-20T15:03:42;4.80;;;4.30;;
1719;SDS011;857;52.872;9.692;2023-08-20T15:06:10;4.60;;;4.20;;
1719;SDS011;857;52.872;9.692;2023-08-20T15:08:38;4.10;;;3.80;;
1719;SDS011;857;52.872;9.692;2023-08-20T15:11:05;4.30;;;3.90;;
1719;SDS011;857;52.872;9.692;2023-08-20T15:13:33;4.37;;;3.80;;
1719;SDS011;857;52.872;9.692;2023-08-20T15:16:02;4.77;;;4.37;;
1719;SDS011;857;52.872;9.692;2023-08-20T15:18:30;4.03;;;3.73;;
1719;SDS011;857;52.872;9.692;2023-08-20T15:20:58;4.03;;;3.73;;
1719;SDS011;857;52.872;9.692;2023-08-20T15:23:27;4.37;;;3.97;;
1719;SDS011;857;52.872;9.692;2023-08-20T15:25:55;5.03;;;3.80;;
1719;SDS011;857;52.872;9.692;2023-08-20T15:28:24;4.13;;;3.73;;
1719;SDS011;857;52.872;9.692;2023-08-20T15:30:55;4.57;;;4.10;;
1719;SDS011;857;52.872;9.692;2023-08-20T15:33:24;4.80;;;4.10;;
1719;SDS011;857;52.872;9.692;2023-08-20T15:35:52;5.10;;;4.63;;
1719;SDS011;857;52.872;9.692;2023-08-20T15:38:19;4.60;;;4.20;;
1719;SDS011;857;52.872;9.692;2023-08-20T15:40:47;4.60;;;4.20;;
1719;SDS011;857;52.872;9.692;2023-08-20T15:43:15;4.00;;;3.57;;